Time;durP1;ratioP1;P1;durP2;ratioP2;P2;SDS_P1;SDS_P2;PMS_P1;PMS_P2;Temp;Humidity;BMP_temperature;BMP_pressure;BME280_temperature;BME280_humidity;BME280_pressure;Samples;Min_cycle;Max_cycle;Signal;HPM_P1;HPM_P2
2022/01/07 00:01:19;;;;;;;26.02;6.72;;;;;;;;;;5027682;28;20084;-77
2022/01/07 00:03:45;;;;;;;16.65;6.53;;;;;;;;;;5009734;28;20042;-79
2022/01/07 00:06:11;;;;;;;21.80;7.97;;;;;;;;;;5026883;28;20046;-77
2022/01/07 00:08:38;;;;;;;19.67;6.45;;;;;;;;;;4993337;28;20089;-78
2022/01/07 00:11:04;;;;;;;14.27;7.35;;;;;;;;;;5027517;28;20513;-80
2022/01/07 00:13:30;;;;;;;23.35;8.27;;;;;;;;;;5027091;28;20045;-79
2022/01/07 00:15:56;;;;;;;14.43;6.55;;;;;;;;;;5010002;28;20042;-77
2022/01/07 00:18:23;;;;;;;17.67;8.38;;;;;;;;;;5026768;28;20041;-78
2022/01/07 00:20:50;;;;;;;21.05;7.75;;;;;;;;;;5027403;28;20065;-77
2022/01/07 00:23:16;;;;;;;18.50;6.85;;;;;;;;;;5027938;28;20503;-78
2022/01/07 00:25:42;;;;;;;23.60;8.40;;;;;;;;;;5026928;28;20046;-78
2022/01/07 00:28:08;;;;;;;16.05;6.65;;;;;;;;;;5026880;28;20140;-79
2022/01/07 00:30:36;;;;;;;16.50;6.63;;;;;;;;;;5021519;28;20056;-79
2022/01/07 00:33:02;;;;;;;21.60;8.18;;;;;;;;;;5025744;28;20081;-78
2022/01/07 00:35:29;;;;;;;18.73;6.78;;;;;;;;;;5026066;28;20044;-78
2022/01/07 00:37:55;;;;;;;16.17;5.88;;;;;;;;;;5025682;28;20033;-78
2022/01/07 00:40:22;;;;;;;20.70;7.85;;;;;;;;;;5024209;28;20037;-77
2022/01/07 00:42:50;;;;;;;15.80;7.75;;;;;;;;;;5023023;28;20572;-77
2022/01/07 00:45:17;;;;;;;19.95;6.82;;;;;;;;;;5025901;28;20048;-77
2022/01/07 00:47:43;;;;;;;22.73;8.23;;;;;;;;;;5026740;28;20125;-78
2022/01/07 00:50:09;;;;;;;12.55;6.10;;;;;;;;;;5007412;28;20037;-77
2022/01/07 00:52:35;;;;;;;21.50;7.28;;;;;;;;;;5022574;28;20037;-77
2022/01/07 00:55:03;;;;;;;19.77;7.20;;;;;;;;;;5023889;28;20045;-79
2022/01/07 00:57:29;;;;;;;18.38;7.35;;;;;;;;;;5024622;28;20402;-78
2022/01/07 00:59:55;;;;;;;16.40;6.70;;;;;;;;;;5024665;28;20132;-79
2022/01/07 01:02:21;;;;;;;17.65;6.60;;;;;;;;;;5008446;28;20049;-79
2022/01/07 01:04:48;;;;;;;17.58;7.25;;;;;;;;;;5023398;28;20073;-81
2022/01/07 01:07:14;;;;;;;19.80;7.22;;;;;;;;;;5024998;28;20077;-78
2022/01/07 01:09:41;;;;;;;19.77;8.65;;;;;;;;;;5024174;28;20050;-79
2022/01/07 01:12:07;;;;;;;12.95;5.43;;;;;;;;;;5024136;28;20040;-79
2022/01/07 01:14:33;;;;;;;18.10;7.88;;;;;;;;;;5007925;28;22112;-79
2022/01/07 01:16:59;;;;;;;15.05;6.88;;;;;;;;;;5025027;28;20048;-80
2022/01/07 01:19:26;;;;;;;21.60;8.70;;;;;;;;;;5023534;28;20404;-79
2022/01/07 01:21:52;;;;;;;20.70;7.72;;;;;;;;;;5024552;28;20513;-77
2022/01/07 01:24:18;;;;;;;23.92;7.45;;;;;;;;;;5025523;28;20778;-79
2022/01/07 01:26:45;;;;;;;23.52;8.85;;;;;;;;;;5007189;28;20057;-78
2022/01/07 01:29:11;;;;;;;14.80;7.45;;;;;;;;;;5025376;28;20415;-80
2022/01/07 01:31:37;;;;;;;21.08;8.10;;;;;;;;;;5025066;28;20068;-79
2022/01/07 01:34:04;;;;;;;15.40;7.60;;;;;;;;;;5024764;28;20045;-79
2022/01/07 01:36:30;;;;;;;18.90;7.38;;;;;;;;;;4989492;28;20091;-78
2022/01/07 01:38:56;;;;;;;22.63;9.45;;;;;;;;;;5024363;28;20127;-79
2022/01/07 01:41:23;;;;;;;16.33;7.72;;;;;;;;;;5024388;28;20617;-79
2022/01/07 01:43:49;;;;;;;18.00;7.65;;;;;;;;;;5024227;28;20485;-79
2022/01/07 01:46:19;;;;;;;14.55;7.13;;;;;;;;;;5024123;28;20056;-78
2022/01/07 01:48:46;;;;;;;21.67;9.43;;;;;;;;;;5023124;28;20041;-78
2022/01/07 01:51:12;;;;;;;19.27;9.00;;;;;;;;;;5023382;28;20056;-79
2022/01/07 01:53:38;;;;;;;19.55;9.40;;;;;;;;;;5013018;28;20041;-80
2022/01/07 01:56:05;;;;;;;17.83;9.27;;;;;;;;;;5022716;28;20044;-79
2022/01/07 01:58:31;;;;;;;28.38;9.43;;;;;;;;;;5003763;28;20050;-79
2022/01/07 02:00:57;;;;;;;18.65;9.25;;;;;;;;;;5023144;28;20112;-78
2022/01/07 02:03:23;;;;;;;25.65;11.10;;;;;;;;;;5023208;28;20045;-80
2022/01/07 02:05:49;;;;;;;16.35;8.50;;;;;;;;;;5025375;28;20034;-81
2022/01/07 02:08:16;;;;;;;19.42;9.50;;;;;;;;;;5024301;28;21068;-81
2022/01/07 02:10:42;;;;;;;14.43;7.90;;;;;;;;;;5024384;28;20053;-81
2022/01/07 02:13:08;;;;;;;18.45;9.45;;;;;;;;;;5023254;28;20501;-81
2022/01/07 02:15:34;;;;;;;18.63;9.93;;;;;;;;;;5025863;28;20045;-80
2022/01/07 02:18:00;;;;;;;13.02;7.55;;;;;;;;;;5023990;28;20038;-78
2022/01/07 02:20:28;;;;;;;12.95;7.00;;;;;;;;;;5029252;28;20064;-79
2022/01/07 02:22:55;;;;;;;16.48;7.32;;;;;;;;;;5029544;28;20429;-81
2022/01/07 02:25:21;;;;;;;17.40;9.40;;;;;;;;;;5011639;28;20395;-81
2022/01/07 02:27:48;;;;;;;19.70;9.98;;;;;;;;;;5029317;28;20085;-80
2022/01/07 02:30:16;;;;;;;17.17;8.45;;;;;;;;;;5028731;28;20419;-80
2022/01/07 02:32:42;;;;;;;22.20;9.95;;;;;;;;;;5010447;28;20080;-81
2022/01/07 02:35:08;;;;;;;20.00;9.70;;;;;;;;;;5025910;28;20125;-81
2022/01/07 02:37:35;;;;;;;13.40;7.22;;;;;;;;;;5010228;28;20037;-78
2022/01/07 02:40:02;;;;;;;15.40;10.32;;;;;;;;;;5026494;28;20378;-79
2022/01/07 02:42:28;;;;;;;15.52;8.63;;;;;;;;;;4993457;28;20029;-79
2022/01/07 02:44:55;;;;;;;19.63;9.82;;;;;;;;;;5010817;28;20041;-80
2022/01/07 02:47:21;;;;;;;18.90;11.30;;;;;;;;;;5028004;28;20084;-79
2022/01/07 02:49:48;;;;;;;19.58;10.30;;;;;;;;;;5010192;28;20053;-78
2022/01/07 02:52:14;;;;;;;16.88;10.73;;;;;;;;;;5026930;28;20040;-79
2022/01/07 02:54:40;;;;;;;18.60;10.63;;;;;;;;;;5023758;28;20115;-80
2022/01/07 02:57:07;;;;;;;16.48;10.02;;;;;;;;;;5026724;28;20401;-80
2022/01/07 02:59:33;;;;;;;18.48;10.45;;;;;;;;;;5026101;28;20482;-79
2022/01/07 03:01:59;;;;;;;17.33;10.65;;;;;;;;;;5027177;28;20091;-79
2022/01/07 03:04:27;;;;;;;14.63;10.25;;;;;;;;;;5027402;28;20048;-79
2022/01/07 03:06:54;;;;;;;15.13;9.98;;;;;;;;;;5027433;28;20120;-76
2022/01/07 03:09:20;;;;;;;14.32;9.88;;;;;;;;;;5026853;28;20045;-76
2022/01/07 03:11:46;;;;;;;22.52;11.98;;;;;;;;;;5010561;28;20048;-77
2022/01/07 03:14:12;;;;;;;20.00;12.88;;;;;;;;;;5026742;28;20053;-79
2022/01/07 03:16:39;;;;;;;13.68;10.25;;;;;;;;;;5010095;28;20505;-78
2022/01/07 03:19:06;;;;;;;20.17;11.45;;;;;;;;;;4993840;28;20057;-78
2022/01/07 03:21:32;;;;;;;15.93;10.68;;;;;;;;;;5027270;28;20033;-79
2022/01/07 03:23:58;;;;;;;13.55;8.23;;;;;;;;;;5026925;28;20053;-80
2022/01/07 03:26:24;;;;;;;17.48;10.98;;;;;;;;;;5027287;28;20160;-80
2022/01/07 03:28:50;;;;;;;16.85;11.10;;;;;;;;;;5026569;28;20053;-80
2022/01/07 03:31:16;;;;;;;17.55;13.07;;;;;;;;;;5026355;28;20053;-78
2022/01/07 03:33:43;;;;;;;20.08;11.68;;;;;;;;;;5002998;28;20034;-79
2022/01/07 03:36:09;;;;;;;15.95;10.43;;;;;;;;;;5026652;28;20056;-78
2022/01/07 03:38:35;;;;;;;24.85;12.23;;;;;;;;;;5026611;28;20053;-78
2022/01/07 03:41:02;;;;;;;17.00;10.05;;;;;;;;;;5027412;28;20038;-77
2022/01/07 03:43:28;;;;;;;20.95;11.98;;;;;;;;;;5023086;28;20068;-78
2022/01/07 03:45:54;;;;;;;19.33;12.82;;;;;;;;;;5026888;28;20037;-78
2022/01/07 03:48:20;;;;;;;23.10;14.38;;;;;;;;;;5026765;28;20045;-78
2022/01/07 03:50:46;;;;;;;22.00;12.82;;;;;;;;;;5006424;28;20056;-78
2022/01/07 03:53:12;;;;;;;23.33;12.93;;;;;;;;;;5026763;28;20084;-79
2022/01/07 03:55:38;;;;;;;21.83;13.65;;;;;;;;;;5025345;28;20030;-78
2022/01/07 03:58:05;;;;;;;18.50;10.90;;;;;;;;;;5025855;28;20034;-77
2022/01/07 04:00:34;;;;;;;22.25;11.52;;;;;;;;;;5025240;28;20033;-78
2022/01/07 04:03:04;;;;;;;15.75;11.55;;;;;;;;;;5027248;28;20060;-77
2022/01/07 04:05:30;;;;;;;13.90;9.32;;;;;;;;;;5008774;28;20493;-77
2022/01/07 04:07:56;;;;;;;22.30;15.25;;;;;;;;;;5025841;28;20045;-76
2022/01/07 04:10:22;;;;;;;18.90;13.32;;;;;;;;;;5024670;28;20495;-77
2022/01/07 04:12:49;;;;;;;16.92;12.50;;;;;;;;;;5008579;28;20034;-77
2022/01/07 04:15:16;;;;;;;16.25;10.07;;;;;;;;;;5008495;28;20041;-76
2022/01/07 04:17:43;;;;;;;19.55;14.65;;;;;;;;;;5025474;28;20045;-77
2022/01/07 04:20:11;;;;;;;22.20;15.90;;;;;;;;;;5024711;28;20486;-79
2022/01/07 04:22:37;;;;;;;23.63;14.25;;;;;;;;;;5025586;28;20052;-78
2022/01/07 04:25:05;;;;;;;19.83;13.70;;;;;;;;;;5008503;28;20053;-79
2022/01/07 04:27:32;;;;;;;19.52;13.25;;;;;;;;;;5026081;28;20040;-79
2022/01/07 04:29:58;;;;;;;16.75;11.93;;;;;;;;;;5026339;28;20482;-77
2022/01/07 04:32:24;;;;;;;17.77;13.68;;;;;;;;;;5024230;28;20037;-79
2022/01/07 04:34:50;;;;;;;21.48;16.15;;;;;;;;;;5024620;28;20069;-79
2022/01/07 04:37:16;;;;;;;22.42;16.13;;;;;;;;;;5007924;28;20489;-79
2022/01/07 04:39:42;;;;;;;20.00;14.70;;;;;;;;;;5024797;28;20484;-78
2022/01/07 04:42:09;;;;;;;16.52;13.43;;;;;;;;;;5025333;28;20049;-78
2022/01/07 04:44:40;;;;;;;24.17;16.40;;;;;;;;;;5022955;28;20075;-78
2022/01/07 04:47:08;;;;;;;25.13;14.95;;;;;;;;;;5008597;28;20100;-79
2022/01/07 04:49:34;;;;;;;16.33;12.15;;;;;;;;;;5026283;28;20128;-78
2022/01/07 04:52:00;;;;;;;20.52;15.00;;;;;;;;;;5025898;28;20033;-79
2022/01/07 04:54:26;;;;;;;20.70;14.23;;;;;;;;;;5025604;28;20387;-78
2022/01/07 04:56:52;;;;;;;20.65;15.20;;;;;;;;;;5025227;28;20429;-79
2022/01/07 04:59:18;;;;;;;22.58;16.63;;;;;;;;;;5024778;28;20116;-78
2022/01/07 05:01:45;;;;;;;17.52;13.63;;;;;;;;;;5022547;28;20037;-78
2022/01/07 05:04:11;;;;;;;20.90;13.15;;;;;;;;;;4991552;28;20045;-78
2022/01/07 05:06:47;;;;;;;19.30;14.43;;;;;;;;;;5007394;28;20033;-78
2022/01/07 05:09:16;;;;;;;15.68;11.68;;;;;;;;;;5024971;28;20043;-78
2022/01/07 05:11:42;;;;;;;16.65;12.38;;;;;;;;;;5022268;28;20139;-77
2022/01/07 05:14:08;;;;;;;19.63;12.85;;;;;;;;;;5024278;28;20058;-78
2022/01/07 05:16:34;;;;;;;17.92;12.98;;;;;;;;;;4976075;28;20069;-78
2022/01/07 05:19:01;;;;;;;22.48;13.90;;;;;;;;;;5025365;28;20127;-78
2022/01/07 05:21:27;;;;;;;18.50;14.35;;;;;;;;;;5007952;28;20034;-78
2022/01/07 05:23:53;;;;;;;21.15;13.75;;;;;;;;;;5023192;28;20049;-78
2022/01/07 05:26:19;;;;;;;17.27;11.07;;;;;;;;;;5025232;28;20049;-77
2022/01/07 05:28:45;;;;;;;19.92;13.15;;;;;;;;;;5024370;28;20830;-77
2022/01/07 05:31:11;;;;;;;21.70;13.10;;;;;;;;;;5024085;28;20125;-78
2022/01/07 05:33:37;;;;;;;17.95;12.52;;;;;;;;;;5024824;28;20060;-79
2022/01/07 05:36:04;;;;;;;18.63;13.55;;;;;;;;;;5024661;28;20041;-78
2022/01/07 05:38:30;;;;;;;14.88;10.48;;;;;;;;;;5023541;28;20053;-79
2022/01/07 05:40:56;;;;;;;16.05;9.90;;;;;;;;;;5024325;28;20077;-79
2022/01/07 05:43:22;;;;;;;18.85;11.60;;;;;;;;;;5025558;28;20033;-78
2022/01/07 05:45:48;;;;;;;16.23;12.85;;;;;;;;;;5024640;28;20387;-78
2022/01/07 05:48:14;;;;;;;16.88;12.73;;;;;;;;;;4988868;28;20125;-78
2022/01/07 05:50:40;;;;;;;17.70;12.68;;;;;;;;;;5007181;28;20489;-78
2022/01/07 05:53:06;;;;;;;14.43;11.07;;;;;;;;;;5005322;28;20050;-79
2022/01/07 05:55:32;;;;;;;13.43;11.13;;;;;;;;;;4975341;28;20042;-77
2022/01/07 05:57:58;;;;;;;17.85;12.18;;;;;;;;;;5023028;28;20038;-78
2022/01/07 06:00:25;;;;;;;15.20;10.48;;;;;;;;;;5021929;28;20541;-79
2022/01/07 06:02:51;;;;;;;16.17;10.85;;;;;;;;;;5005510;28;20042;-79
2022/01/07 06:05:17;;;;;;;17.00;11.10;;;;;;;;;;5025435;28;20493;-78
2022/01/07 06:07:43;;;;;;;13.70;10.75;;;;;;;;;;4989779;28;20033;-78
2022/01/07 06:10:10;;;;;;;19.33;12.00;;;;;;;;;;5021943;28;20428;-78
2022/01/07 06:12:36;;;;;;;15.80;11.98;;;;;;;;;;5023464;28;20091;-77
2022/01/07 06:15:03;;;;;;;13.30;11.05;;;;;;;;;;4989586;28;20084;-78
2022/01/07 06:17:29;;;;;;;11.90;8.55;;;;;;;;;;5024216;28;20048;-77
2022/01/07 06:19:55;;;;;;;11.98;9.68;;;;;;;;;;4990619;28;20040;-81
2022/01/07 06:22:21;;;;;;;18.17;11.55;;;;;;;;;;5023725;28;20146;-79
2022/01/07 06:24:47;;;;;;;17.75;11.75;;;;;;;;;;5023360;28;20479;-78
2022/01/07 06:27:13;;;;;;;15.52;10.60;;;;;;;;;;5023915;28;20046;-78
2022/01/07 06:29:39;;;;;;;17.20;11.13;;;;;;;;;;5023183;28;20037;-81
2022/01/07 06:32:06;;;;;;;13.50;9.25;;;;;;;;;;5005787;28;20053;-80
2022/01/07 06:34:32;;;;;;;14.70;9.50;;;;;;;;;;5023871;28;20459;-80
2022/01/07 06:37:02;;;;;;;20.90;12.30;;;;;;;;;;5021913;28;20559;-81
2022/01/07 06:39:32;;;;;;;19.70;12.70;;;;;;;;;;5004825;28;20047;-81
2022/01/07 06:41:59;;;;;;;12.93;10.65;;;;;;;;;;5004634;28;20159;-80
2022/01/07 06:44:26;;;;;;;16.40;12.02;;;;;;;;;;5023626;28;20100;-77
2022/01/07 06:46:52;;;;;;;16.90;12.00;;;;;;;;;;5022576;28;20042;-80
2022/01/07 06:49:18;;;;;;;18.10;12.80;;;;;;;;;;4985731;28;20470;-78
2022/01/07 06:51:44;;;;;;;15.90;12.05;;;;;;;;;;5022749;28;20156;-80
2022/01/07 06:54:11;;;;;;;12.48;8.82;;;;;;;;;;5022640;28;20536;-81
2022/01/07 06:56:41;;;;;;;12.48;10.30;;;;;;;;;;5005791;28;20045;-79
2022/01/07 06:59:07;;;;;;;16.50;12.68;;;;;;;;;;5020192;28;20055;-81
2022/01/07 07:01:33;;;;;;;14.52;10.35;;;;;;;;;;5022923;28;20030;-80
2022/01/07 07:04:00;;;;;;;14.63;11.60;;;;;;;;;;5022614;28;22220;-80
2022/01/07 07:06:26;;;;;;;19.38;12.70;;;;;;;;;;5024205;28;20143;-80
2022/01/07 07:08:52;;;;;;;15.50;11.23;;;;;;;;;;5026712;28;20049;-81
2022/01/07 07:11:18;;;;;;;18.60;12.25;;;;;;;;;;5025847;28;20075;-80
2022/01/07 07:13:44;;;;;;;14.25;9.50;;;;;;;;;;5006227;28;20124;-80
2022/01/07 07:16:10;;;;;;;14.80;10.50;;;;;;;;;;5024671;28;20038;-80
2022/01/07 07:18:36;;;;;;;15.88;9.95;;;;;;;;;;5026623;28;20041;-78
2022/01/07 07:21:02;;;;;;;15.77;11.60;;;;;;;;;;5026253;28;20045;-79
2022/01/07 07:23:28;;;;;;;14.57;11.30;;;;;;;;;;5026050;28;20077;-80
2022/01/07 07:25:54;;;;;;;15.02;8.55;;;;;;;;;;5007861;28;20620;-80
2022/01/07 07:28:20;;;;;;;16.33;11.10;;;;;;;;;;5024482;28;20034;-80
2022/01/07 07:30:48;;;;;;;18.25;12.35;;;;;;;;;;5024067;28;20052;-78
2022/01/07 07:38:12;;;;;;;13.80;11.35;;;;;;;;;;5004170;28;20057;-83
2022/01/07 07:40:38;;;;;;;16.15;12.23;;;;;;;;;;5027541;28;21973;-83
2022/01/07 07:43:04;;;;;;;15.93;12.18;;;;;;;;;;5026084;28;20049;-83
2022/01/07 07:45:30;;;;;;;16.58;12.52;;;;;;;;;;5010672;28;20052;-83
2022/01/07 07:47:56;;;;;;;13.80;12.10;;;;;;;;;;5008955;28;20128;-83
2022/01/07 07:50:22;;;;;;;22.17;14.10;;;;;;;;;;5027413;28;20037;-83
2022/01/07 07:52:48;;;;;;;19.85;13.60;;;;;;;;;;5010414;28;20504;-83
2022/01/07 07:55:14;;;;;;;19.95;14.70;;;;;;;;;;5025893;28;20057;-83
2022/01/07 07:57:40;;;;;;;18.02;11.88;;;;;;;;;;5008071;28;20056;-83
2022/01/07 08:00:07;;;;;;;15.45;13.52;;;;;;;;;;5022612;28;20045;-82
2022/01/07 08:02:34;;;;;;;16.58;12.02;;;;;;;;;;5026064;28;20049;-84
2022/01/07 08:05:00;;;;;;;20.48;12.98;;;;;;;;;;5026057;28;20049;-83
2022/01/07 08:07:26;;;;;;;18.55;11.68;;;;;;;;;;5007550;28;20049;-83
2022/01/07 08:09:53;;;;;;;19.73;15.13;;;;;;;;;;5027191;28;20398;-83
2022/01/07 08:12:25;;;;;;;20.08;12.73;;;;;;;;;;5024543;28;20103;-82
2022/01/07 08:17:36;;;;;;;;;;;;;;;;;;5026270;28;20056;-83
2022/01/07 08:20:03;;;;;;;25.15;15.68;;;;;;;;;;5025966;28;19929;-84
2022/01/07 08:22:29;;;;;;;19.95;14.25;;;;;;;;;;5020868;28;20125;-83
2022/01/07 08:24:55;;;;;;;25.35;13.38;;;;;;;;;;5024778;28;20041;-82
2022/01/07 08:27:21;;;;;;;20.00;15.32;;;;;;;;;;5026541;28;20129;-83
2022/01/07 08:29:47;;;;;;;23.95;16.00;;;;;;;;;;5025532;28;20108;-83
2022/01/07 08:34:58;;;;;;;16.85;11.20;;;;;;;;;;5008724;28;20087;-83
2022/01/07 08:37:25;;;;;;;24.05;15.20;;;;;;;;;;5008401;28;20041;-84
2022/01/07 08:39:53;;;;;;;26.60;17.17;;;;;;;;;;5024759;28;20038;-84
2022/01/07 08:42:20;;;;;;;30.70;15.93;;;;;;;;;;5024598;28;20475;-83
2022/01/07 08:44:46;;;;;;;26.45;14.57;;;;;;;;;;5025272;28;20060;-83
2022/01/07 08:47:12;;;;;;;28.13;17.20;;;;;;;;;;5026122;28;20034;-83
2022/01/07 08:49:38;;;;;;;33.10;18.08;;;;;;;;;;4986604;28;20084;-83
2022/01/07 08:52:04;;;;;;;25.50;15.80;;;;;;;;;;5028183;28;20128;-82
2022/01/07 08:54:30;;;;;;;27.67;16.60;;;;;;;;;;5030794;28;20041;-83
2022/01/07 08:56:56;;;;;;;31.52;16.80;;;;;;;;;;4993398;28;20038;-83
2022/01/07 08:59:22;;;;;;;26.20;17.73;;;;;;;;;;5024865;28;20090;-83
2022/01/07 09:01:48;;;;;;;35.80;19.77;;;;;;;;;;5026092;28;20042;-83
2022/01/07 09:04:15;;;;;;;18.65;14.18;;;;;;;;;;5005670;28;20047;-82
2022/01/07 09:06:41;;;;;;;30.30;17.63;;;;;;;;;;5007373;28;20050;-83
2022/01/07 09:09:07;;;;;;;31.38;17.02;;;;;;;;;;5021171;28;20079;-83
2022/01/07 09:11:33;;;;;;;34.67;19.33;;;;;;;;;;5020381;28;20052;-81
2022/01/07 09:13:59;;;;;;;28.13;18.70;;;;;;;;;;5006506;28;20508;-80
2022/01/07 09:16:26;;;;;;;30.45;17.15;;;;;;;;;;5025206;28;20637;-81
2022/01/07 09:18:52;;;;;;;32.22;17.40;;;;;;;;;;5006620;28;21629;-81
2022/01/07 09:21:18;;;;;;;36.50;19.65;;;;;;;;;;5023823;28;20038;-81
2022/01/07 09:23:45;;;;;;;29.70;18.15;;;;;;;;;;5024994;28;20045;-82
2022/01/07 09:26:12;;;;;;;30.13;19.55;;;;;;;;;;5022698;28;20045;-81
2022/01/07 09:28:38;;;;;;;30.00;20.02;;;;;;;;;;5023371;28;20055;-83
2022/01/07 09:31:05;;;;;;;24.73;17.00;;;;;;;;;;5024413;28;20037;-82
2022/01/07 09:33:31;;;;;;;31.80;18.08;;;;;;;;;;5025018;28;20029;-82
2022/01/07 09:35:57;;;;;;;30.58;20.50;;;;;;;;;;4998020;28;20493;-83
2022/01/07 09:38:25;;;;;;;27.17;16.50;;;;;;;;;;5021659;28;20103;-83
2022/01/07 09:40:51;;;;;;;27.95;16.50;;;;;;;;;;5006696;28;20508;-83
2022/01/07 09:43:17;;;;;;;33.15;19.30;;;;;;;;;;5022712;28;20128;-81
2022/01/07 09:45:44;;;;;;;24.88;16.08;;;;;;;;;;5024760;28;20509;-82
2022/01/07 09:48:10;;;;;;;29.30;21.30;;;;;;;;;;5022734;28;20061;-81
2022/01/07 09:50:37;;;;;;;32.22;20.40;;;;;;;;;;5021982;28;20080;-83
2022/01/07 09:53:05;;;;;;;32.53;19.83;;;;;;;;;;5021965;28;20492;-81
2022/01/07 09:55:31;;;;;;;29.77;21.38;;;;;;;;;;5023289;28;20087;-83
2022/01/07 09:57:57;;;;;;;49.15;20.75;;;;;;;;;;5023158;28;20068;-81
2022/01/07 10:00:23;;;;;;;23.38;16.83;;;;;;;;;;5022834;28;20041;-81
2022/01/07 10:03:00;;;;;;;30.48;18.48;;;;;;;;;;5024718;28;20038;-81
2022/01/07 10:05:26;;;;;;;37.28;21.70;;;;;;;;;;5023112;28;20041;-82
2022/01/07 10:07:53;;;;;;;33.67;20.60;;;;;;;;;;5005865;28;20136;-82
2022/01/07 10:10:19;;;;;;;30.83;20.80;;;;;;;;;;5006295;28;20488;-82
2022/01/07 10:12:50;;;;;;;35.47;21.13;;;;;;;;;;5024651;28;20112;-81
2022/01/07 10:15:16;;;;;;;35.17;22.58;;;;;;;;;;5022541;28;20040;-81
2022/01/07 10:17:53;;;;;;;27.00;18.90;;;;;;;;;;5021782;28;20038;-81
2022/01/07 10:20:22;;;;;;;30.20;17.85;;;;;;;;;;5006391;28;20042;-82
2022/01/07 10:22:54;;;;;;;38.75;20.38;;;;;;;;;;5004834;28;20039;-82
2022/01/07 10:25:24;;;;;;;34.55;18.20;;;;;;;;;;5022963;28;20068;-82
2022/01/07 10:27:51;;;;;;;27.58;16.50;;;;;;;;;;5022664;28;20493;-83
2022/01/07 10:30:19;;;;;;;26.27;18.08;;;;;;;;;;5023115;28;20124;-82
2022/01/07 10:32:45;;;;;;;28.90;18.50;;;;;;;;;;5022162;28;20472;-82
2022/01/07 10:35:14;;;;;;;29.33;16.73;;;;;;;;;;4996114;28;20104;-83
2022/01/07 10:37:48;;;;;;;29.02;16.15;;;;;;;;;;5024133;28;20053;-83
2022/01/07 10:40:22;;;;;;;27.60;16.10;;;;;;;;;;5028710;28;20096;-83
2022/01/07 10:42:48;;;;;;;25.05;14.77;;;;;;;;;;5029759;28;20132;-83
2022/01/07 10:45:14;;;;;;;20.67;14.68;;;;;;;;;;4989730;28;20045;-84
2022/01/07 10:47:41;;;;;;;21.58;12.10;;;;;;;;;;4983269;28;20580;-83
2022/01/07 10:50:21;;;;;;;14.18;9.95;;;;;;;;;;5011623;28;20038;-84
2022/01/07 10:52:47;;;;;;;11.05;5.90;;;;;;;;;;5025656;28;20563;-85
2022/01/07 10:55:15;;;;;;;4.05;2.75;;;;;;;;;;5025124;28;20045;-84
2022/01/07 10:57:43;;;;;;;6.57;2.03;;;;;;;;;;5022672;28;20497;-84
2022/01/07 11:00:11;;;;;;;3.00;1.98;;;;;;;;;;5025894;28;20049;-85
2022/01/07 11:02:37;;;;;;;2.08;1.75;;;;;;;;;;5022254;28;20493;-84
2022/01/07 11:05:04;;;;;;;4.63;1.85;;;;;;;;;;5026306;28;20050;-85
2022/01/07 11:07:30;;;;;;;3.53;2.40;;;;;;;;;;5026635;28;20073;-84
2022/01/07 11:09:56;;;;;;;5.68;2.63;;;;;;;;;;5027419;28;20141;-85
2022/01/07 11:12:25;;;;;;;5.60;3.30;;;;;;;;;;5028881;28;20042;-85
2022/01/07 11:14:51;;;;;;;4.43;3.20;;;;;;;;;;5010024;28;20464;-85
2022/01/07 11:17:21;;;;;;;4.78;3.20;;;;;;;;;;5024133;28;20028;-84
2022/01/07 11:20:01;;;;;;;7.45;4.22;;;;;;;;;;5008297;28;20497;-85
2022/01/07 11:22:28;;;;;;;7.10;4.63;;;;;;;;;;5024016;28;20060;-85
2022/01/07 11:24:56;;;;;;;7.22;4.22;;;;;;;;;;5026412;28;20108;-86
2022/01/07 11:27:26;;;;;;;6.32;4.00;;;;;;;;;;5009892;28;20088;-84
2022/01/07 11:30:03;;;;;;;7.60;2.97;;;;;;;;;;5010367;28;20045;-84
2022/01/07 11:32:31;;;;;;;6.35;2.80;;;;;;;;;;5024531;28;20410;-84
2022/01/07 11:35:21;;;;;;;4.93;1.83;;;;;;;;;;5027574;28;20120;-84
2022/01/07 11:37:51;;;;;;;4.88;2.45;;;;;;;;;;5025758;28;20498;-85
2022/01/07 11:40:30;;;;;;;5.95;2.15;;;;;;;;;;5026342;28;20041;-84
2022/01/07 11:42:57;;;;;;;9.55;2.13;;;;;;;;;;5025471;28;20527;-84
2022/01/07 11:45:35;;;;;;;6.47;1.80;;;;;;;;;;4998965;28;20103;-84
2022/01/07 11:48:23;;;;;;;10.40;2.65;;;;;;;;;;5026765;28;20050;-84
2022/01/07 11:50:54;;;;;;;8.35;2.80;;;;;;;;;;5022212;28;20034;-84
2022/01/07 11:53:20;;;;;;;5.35;2.38;;;;;;;;;;5027048;28;20524;-84
2022/01/07 11:55:46;;;;;;;3.97;2.25;;;;;;;;;;4994823;28;20041;-85
2022/01/07 11:58:13;;;;;;;7.78;2.83;;;;;;;;;;5024754;28;20550;-85
2022/01/07 12:00:59;;;;;;;6.95;2.42;;;;;;;;;;5025000;28;20045;-83
2022/01/07 12:03:37;;;;;;;6.78;2.92;;;;;;;;;;5022460;28;20102;-84
2022/01/07 12:06:26;;;;;;;8.43;3.05;;;;;;;;;;5025527;28;20430;-84
2022/01/07 12:08:58;;;;;;;8.52;3.25;;;;;;;;;;5021272;28;20079;-83
2022/01/07 12:11:24;;;;;;;7.28;3.28;;;;;;;;;;5022559;28;20561;-84
2022/01/07 12:13:50;;;;;;;9.05;3.63;;;;;;;;;;5027091;28;20038;-83
2022/01/07 12:16:20;;;;;;;6.35;3.78;;;;;;;;;;5022173;28;20051;-84
2022/01/07 12:18:46;;;;;;;6.35;3.30;;;;;;;;;;5003545;28;20068;-84
2022/01/07 12:21:12;;;;;;;9.70;4.72;;;;;;;;;;5013504;28;20095;-86
2022/01/07 12:23:39;;;;;;;9.70;4.57;;;;;;;;;;5006710;28;20054;-84
2022/01/07 12:26:06;;;;;;;7.55;4.65;;;;;;;;;;5009128;28;20486;-86
2022/01/07 12:28:41;;;;;;;11.32;4.95;;;;;;;;;;5022490;28;20068;-84
2022/01/07 12:31:12;;;;;;;10.55;5.00;;;;;;;;;;5027086;28;20081;-84
2022/01/07 12:33:57;;;;;;;8.52;3.85;;;;;;;;;;5024630;28;20041;-83
2022/01/07 12:36:26;;;;;;;13.55;4.93;;;;;;;;;;5018624;28;20450;-83
2022/01/07 12:39:18;;;;;;;10.52;5.13;;;;;;;;;;5023267;28;20103;-85
2022/01/07 12:41:52;;;;;;;12.02;4.80;;;;;;;;;;5003618;28;20472;-85
2022/01/07 12:44:18;;;;;;;18.55;5.93;;;;;;;;;;5007952;28;20100;-82
2022/01/07 12:46:50;;;;;;;15.40;8.73;;;;;;;;;;5026214;28;20046;-85
2022/01/07 12:49:16;;;;;;;20.65;7.25;;;;;;;;;;5001684;28;20046;-84
2022/01/07 12:51:42;;;;;;;18.58;7.53;;;;;;;;;;5023201;28;20041;-86
2022/01/07 12:54:08;;;;;;;14.23;6.53;;;;;;;;;;5011100;28;20056;-84
2022/01/07 12:56:38;;;;;;;15.73;7.63;;;;;;;;;;5010191;28;20037;-86
2022/01/07 12:59:17;;;;;;;12.40;6.60;;;;;;;;;;5008658;28;20052;-87
2022/01/07 13:01:44;;;;;;;16.83;7.75;;;;;;;;;;5028308;28;20076;-85
2022/01/07 13:04:11;;;;;;;18.88;7.97;;;;;;;;;;5026868;28;20136;-85
2022/01/07 13:06:44;;;;;;;17.77;7.15;;;;;;;;;;5001977;28;20124;-86
2022/01/07 13:09:15;;;;;;;11.03;5.97;;;;;;;;;;4990250;28;20042;-86
2022/01/07 13:11:41;;;;;;;16.25;7.32;;;;;;;;;;5008491;28;20046;-84
2022/01/07 13:14:08;;;;;;;14.25;7.05;;;;;;;;;;5008098;28;20053;-84
2022/01/07 13:16:34;;;;;;;20.48;6.00;;;;;;;;;;5023138;28;20339;-84
2022/01/07 13:19:01;;;;;;;15.30;7.55;;;;;;;;;;5025641;28;20501;-84
2022/01/07 13:21:28;;;;;;;10.73;5.65;;;;;;;;;;5025403;28;20458;-83
2022/01/07 13:23:58;;;;;;;10.45;4.45;;;;;;;;;;5025635;28;20132;-84
2022/01/07 13:26:25;;;;;;;10.77;4.78;;;;;;;;;;5027170;28;20128;-84
2022/01/07 13:28:52;;;;;;;9.98;3.83;;;;;;;;;;5027388;28;20041;-85
2022/01/07 13:31:32;;;;;;;11.52;4.05;;;;;;;;;;5027815;28;20114;-86
2022/01/07 13:33:58;;;;;;;5.88;2.70;;;;;;;;;;5023225;28;20457;-85
2022/01/07 13:36:39;;;;;;;7.30;3.38;;;;;;;;;;5024745;28;20509;-85
2022/01/07 13:39:06;;;;;;;8.02;3.08;;;;;;;;;;5008196;28;20076;-85
2022/01/07 13:41:33;;;;;;;7.55;3.65;;;;;;;;;;5026793;28;20084;-83
2022/01/07 13:44:04;;;;;;;9.88;3.60;;;;;;;;;;5006761;28;21488;-84
2022/01/07 13:46:32;;;;;;;5.68;3.08;;;;;;;;;;5005638;28;20111;-84
2022/01/07 13:49:06;;;;;;;7.18;3.03;;;;;;;;;;5023605;28;20053;-84
2022/01/07 13:51:33;;;;;;;6.32;3.08;;;;;;;;;;5022751;28;20450;-83
2022/01/07 13:54:05;;;;;;;6.93;2.50;;;;;;;;;;5025104;28;20056;-84
2022/01/07 13:56:31;;;;;;;10.65;2.50;;;;;;;;;;5006693;28;20041;-85
2022/01/07 13:58:58;;;;;;;6.40;2.50;;;;;;;;;;5006542;28;20131;-85
2022/01/07 14:01:24;;;;;;;6.93;2.42;;;;;;;;;;5005259;28;20041;-84
2022/01/07 14:03:51;;;;;;;11.55;2.10;;;;;;;;;;5023558;28;20045;-85
2022/01/07 14:06:19;;;;;;;7.97;2.10;;;;;;;;;;4990515;28;20137;-86
2022/01/07 14:08:45;;;;;;;10.40;2.78;;;;;;;;;;5024259;28;20397;-84
2022/01/07 14:11:12;;;;;;;8.63;2.35;;;;;;;;;;5022522;28;20030;-86
2022/01/07 14:13:38;;;;;;;7.57;2.50;;;;;;;;;;5022384;28;20517;-85
2022/01/07 14:16:05;;;;;;;11.95;2.42;;;;;;;;;;5028304;28;20110;-84
2022/01/07 14:18:33;;;;;;;6.80;1.88;;;;;;;;;;5028294;28;20060;-84
2022/01/07 14:21:03;;;;;;;9.95;2.03;;;;;;;;;;5011757;28;20053;-86
2022/01/07 14:23:33;;;;;;;6.78;1.92;;;;;;;;;;5030754;28;20121;-86
2022/01/07 14:26:03;;;;;;;5.40;2.40;;;;;;;;;;5029800;28;20491;-85
2022/01/07 14:28:30;;;;;;;8.10;2.15;;;;;;;;;;5030433;28;20045;-84
2022/01/07 14:30:56;;;;;;;9.20;1.90;;;;;;;;;;5030721;28;20528;-84
2022/01/07 14:33:22;;;;;;;8.90;1.77;;;;;;;;;;5034884;28;20054;-84
2022/01/07 14:35:49;;;;;;;11.30;2.72;;;;;;;;;;5028608;28;20061;-83
2022/01/07 14:38:15;;;;;;;7.60;1.73;;;;;;;;;;5028625;28;20049;-84